createdAt,value
2022-12-22T00:01:19.517Z,1.70
2022-12-22T00:02:40.419Z,2.03
2022-12-22T00:04:00.823Z,2.20
2022-12-22T00:05:30.306Z,2.10
2022-12-22T00:06:50.695Z,1.30
2022-12-22T00:08:11.228Z,1.65
2022-12-22T00:09:31.839Z,2.08
2022-12-22T00:10:52.241Z,1.65
2022-12-22T00:12:14.422Z,1.70
2022-12-22T00:13:35.067Z,1.40
2022-12-22T00:14:55.654Z,2.15
2022-12-22T00:16:16.979Z,1.20
2022-12-22T00:17:45.649Z,1.60
2022-12-22T00:19:05.972Z,2.22
2022-12-22T00:20:32.064Z,1.80
2022-12-22T00:21:52.692Z,1.65
2022-12-22T00:23:12.951Z,1.38
2022-12-22T00:24:33.200Z,1.95
2022-12-22T00:25:53.323Z,1.55
2022-12-22T00:27:15.145Z,2.00
2022-12-22T00:28:35.914Z,1.83
2022-12-22T00:29:59.635Z,1.55
2022-12-22T00:31:20.049Z,1.40
2022-12-22T00:32:41.475Z,1.75
2022-12-22T00:34:02.339Z,1.85
2022-12-22T00:35:23.147Z,1.90
2022-12-22T00:36:44.092Z,1.55
2022-12-22T00:38:04.578Z,1.55
2022-12-22T00:39:31.050Z,1.60
2022-12-22T00:40:54.442Z,1.55
2022-12-22T00:42:16.504Z,1.70
2022-12-22T00:43:36.905Z,2.20
2022-12-22T00:44:57.354Z,2.25
2022-12-22T00:46:20.176Z,2.00
2022-12-22T00:47:43.625Z,1.73
2022-12-22T00:49:04.842Z,1.63
2022-12-22T00:50:27.130Z,1.85
2022-12-22T00:51:48.348Z,2.60
2022-12-22T00:53:08.829Z,1.70
2022-12-22T00:54:30.793Z,2.20
2022-12-22T00:55:51.654Z,1.85
2022-12-22T00:57:12.555Z,2.30
2022-12-22T00:58:36.448Z,1.95
2022-12-22T00:59:57.053Z,2.20
2022-12-22T01:01:17.623Z,1.90
2022-12-22T01:02:38.091Z,2.55
2022-12-22T01:03:58.821Z,2.33
2022-12-22T01:05:19.307Z,3.10
2022-12-22T01:06:39.565Z,2.58
2022-12-22T01:08:00.406Z,2.38
2022-12-22T01:09:20.841Z,2.45
2022-12-22T01:10:43.309Z,2.30
2022-12-22T01:12:03.454Z,2.72
2022-12-22T01:13:29.136Z,2.65
2022-12-22T01:14:50.751Z,2.35
2022-12-22T01:16:11.300Z,3.10
2022-12-22T01:17:31.975Z,2.20
2022-12-22T01:18:52.386Z,1.85
2022-12-22T01:20:13.069Z,2.15
2022-12-22T01:21:35.343Z,2.25
2022-12-22T01:22:55.589Z,1.70
2022-12-22T01:24:15.795Z,1.40
2022-12-22T01:25:37.939Z,1.90
2022-12-22T01:26:58.255Z,1.60
2022-12-22T01:28:18.797Z,1.80
2022-12-22T01:29:39.152Z,1.30
2022-12-22T01:31:01.481Z,1.08
2022-12-22T01:32:21.901Z,1.80
2022-12-22T01:33:42.170Z,2.03
2022-12-22T01:35:02.442Z,1.60
2022-12-22T01:36:23.823Z,1.02
2022-12-22T01:37:44.450Z,1.35
2022-12-22T01:39:04.931Z,1.52
2022-12-22T01:40:31.882Z,1.70
2022-12-22T01:41:51.989Z,1.60
2022-12-22T01:43:12.407Z,1.80
2022-12-22T01:44:34.712Z,1.55
2022-12-22T01:45:56.293Z,1.38
2022-12-22T01:47:53.045Z,1.23
2022-12-22T01:49:13.559Z,1.40
2022-12-22T01:50:35.760Z,2.33
2022-12-22T01:51:56.242Z,1.17
2022-12-22T01:53:19.932Z,1.05
2022-12-22T01:54:40.753Z,1.38
2022-12-22T01:56:01.105Z,1.48
2022-12-22T01:57:21.797Z,1.60
2022-12-22T01:58:48.929Z,1.10
2022-12-22T02:00:09.341Z,1.55
2022-12-22T02:01:32.704Z,1.30
2022-12-22T02:02:54.661Z,1.35
2022-12-22T02:04:15.340Z,1.45
2022-12-22T02:05:37.989Z,1.50
2022-12-22T02:07:00.882Z,1.25
2022-12-22T02:08:35.588Z,1.23
2022-12-22T02:10:03.052Z,1.40
2022-12-22T02:11:40.881Z,1.48
2022-12-22T02:13:09.768Z,1.33
2022-12-22T02:14:40.420Z,1.13
2022-12-22T02:16:05.415Z,1.40
2022-12-22T02:17:33.024Z,1.50
2022-12-22T02:19:01.451Z,1.40
2022-12-22T02:20:46.657Z,1.70
2022-12-22T02:22:17.758Z,1.73
2022-12-22T02:23:55.943Z,1.35
2022-12-22T02:25:23.896Z,1.63
2022-12-22T02:26:49.003Z,2.42
2022-12-22T02:28:12.070Z,1.30
2022-12-22T02:29:34.049Z,1.23
2022-12-22T02:30:55.664Z,1.48
2022-12-22T02:32:16.402Z,1.35
2022-12-22T02:33:39.405Z,1.70
2022-12-22T02:35:00.102Z,1.60
2022-12-22T02:36:29.618Z,1.83
2022-12-22T02:37:59.916Z,1.63
2022-12-22T02:39:30.395Z,1.20
2022-12-22T02:40:59.205Z,1.35
2022-12-22T02:42:30.975Z,1.70
2022-12-22T02:44:07.589Z,1.48
2022-12-22T02:45:40.162Z,1.60
2022-12-22T02:47:07.167Z,1.95
2022-12-22T02:48:34.627Z,1.20
2022-12-22T02:49:58.931Z,1.60
2022-12-22T02:51:24.505Z,2.13
2022-12-22T02:52:50.468Z,1.35
2022-12-22T02:54:12.298Z,1.70
2022-12-22T02:55:33.710Z,1.70
2022-12-22T02:56:54.092Z,1.52
2022-12-22T02:58:17.494Z,1.60
2022-12-22T02:59:37.625Z,1.45
2022-12-22T03:00:58.635Z,2.00
2022-12-22T03:02:19.615Z,1.67
2022-12-22T03:03:40.531Z,1.70
2022-12-22T03:05:00.813Z,1.20
2022-12-22T03:06:21.040Z,1.40
2022-12-22T03:07:41.369Z,1.23
2022-12-22T03:09:02.345Z,1.15
2022-12-22T03:10:23.696Z,1.30
2022-12-22T03:11:43.849Z,1.25
2022-12-22T03:13:04.141Z,1.70
2022-12-22T03:14:25.698Z,0.98
2022-12-22T03:15:46.212Z,1.20
2022-12-22T03:17:06.432Z,1.15
2022-12-22T03:18:28.915Z,1.20
2022-12-22T03:19:49.633Z,1.15
2022-12-22T03:21:09.899Z,1.55
2022-12-22T03:22:30.166Z,0.90
2022-12-22T03:23:50.464Z,1.25
2022-12-22T03:25:10.909Z,1.00
2022-12-22T03:26:13.784Z,1.30
2022-12-22T03:27:15.705Z,1.25
2022-12-22T03:28:18.556Z,1.20
2022-12-22T03:29:21.835Z,1.40
2022-12-22T03:30:24.717Z,1.15
2022-12-22T03:31:26.678Z,1.20
2022-12-22T03:32:29.564Z,1.15
2022-12-22T03:33:32.305Z,1.30
2022-12-22T03:34:35.187Z,1.10
2022-12-22T03:35:37.173Z,1.20
2022-12-22T03:36:41.213Z,0.90
2022-12-22T03:37:43.183Z,0.85
2022-12-22T03:38:46.031Z,0.90
2022-12-22T03:39:48.008Z,1.20
2022-12-22T03:40:51.040Z,1.00
2022-12-22T03:42:11.287Z,1.27
2022-12-22T03:43:33.191Z,0.98
2022-12-22T03:44:54.727Z,0.90
2022-12-22T03:46:17.425Z,1.15
2022-12-22T03:47:20.381Z,0.98
2022-12-22T03:48:22.245Z,1.02
2022-12-22T03:49:26.243Z,0.80
2022-12-22T03:50:28.138Z,0.95
2022-12-22T03:51:30.001Z,0.93
2022-12-22T03:52:32.860Z,0.82
2022-12-22T03:53:34.941Z,0.60
2022-12-22T03:54:37.913Z,0.90
2022-12-22T03:55:39.826Z,0.88
2022-12-22T03:56:43.346Z,0.77
2022-12-22T03:57:45.346Z,1.00
2022-12-22T03:58:48.487Z,1.13
2022-12-22T03:59:51.819Z,0.90
2022-12-22T04:00:54.831Z,0.70
2022-12-22T04:01:58.843Z,1.33
2022-12-22T04:03:02.083Z,0.70
2022-12-22T04:04:04.275Z,0.80
2022-12-22T04:05:07.779Z,1.08
2022-12-22T04:06:09.751Z,0.90
2022-12-22T04:07:12.672Z,0.90
2022-12-22T04:08:14.658Z,0.85
2022-12-22T04:09:17.693Z,0.80
2022-12-22T04:10:38.055Z,0.93
2022-12-22T04:11:58.294Z,1.17
2022-12-22T04:13:00.251Z,0.85
2022-12-22T04:14:03.432Z,1.45
2022-12-22T04:15:08.318Z,1.20
2022-12-22T04:16:11.462Z,1.00
2022-12-22T04:17:13.450Z,0.82
2022-12-22T04:18:16.396Z,1.20
2022-12-22T04:19:18.335Z,0.65
2022-12-22T04:20:22.847Z,1.40
2022-12-22T04:21:25.170Z,0.90
2022-12-22T04:22:28.173Z,0.90
2022-12-22T04:23:30.065Z,0.80
2022-12-22T04:24:33.072Z,0.90
2022-12-22T04:25:35.020Z,0.80
2022-12-22T04:26:38.111Z,1.27
2022-12-22T04:27:40.640Z,1.13
2022-12-22T04:28:43.647Z,1.13
2022-12-22T04:29:45.591Z,0.90
2022-12-22T04:30:51.689Z,1.10
2022-12-22T04:31:53.593Z,0.68
2022-12-22T04:32:56.552Z,0.80
2022-12-22T04:33:58.515Z,0.73
2022-12-22T04:35:01.425Z,1.10
2022-12-22T04:36:03.607Z,0.90
2022-12-22T04:37:14.801Z,0.70
2022-12-22T04:38:18.915Z,0.80
2022-12-22T04:39:21.870Z,0.90
2022-12-22T04:40:23.773Z,0.80
2022-12-22T04:41:27.741Z,0.80
2022-12-22T04:42:29.746Z,0.95
2022-12-22T04:43:32.907Z,0.55
2022-12-22T04:44:35.273Z,1.08
2022-12-22T04:45:38.230Z,0.80
2022-12-22T04:46:41.552Z,0.60
2022-12-22T04:47:44.459Z,0.70
2022-12-22T04:48:46.371Z,0.60
2022-12-22T04:49:49.574Z,0.77
2022-12-22T04:50:52.353Z,0.50
2022-12-22T04:51:55.309Z,0.60
2022-12-22T04:52:57.303Z,0.60
2022-12-22T04:54:00.649Z,0.73
2022-12-22T04:55:02.572Z,0.60
2022-12-22T04:56:08.386Z,0.90
2022-12-22T04:57:10.368Z,0.50
2022-12-22T04:58:13.372Z,0.52
2022-12-22T04:59:16.234Z,0.50
2022-12-22T05:00:19.600Z,0.40
2022-12-22T05:01:22.746Z,0.60
2022-12-22T05:02:26.215Z,0.50
2022-12-22T05:03:29.389Z,0.43
2022-12-22T05:04:32.334Z,0.63
2022-12-22T05:05:35.973Z,0.57
2022-12-22T05:06:37.978Z,0.63
2022-12-22T05:07:40.850Z,0.60
2022-12-22T05:08:42.908Z,0.70
2022-12-22T05:09:45.822Z,0.40
2022-12-22T05:10:47.836Z,0.55
2022-12-22T05:11:50.995Z,0.70
2022-12-22T05:12:55.536Z,0.60
2022-12-22T05:14:02.159Z,0.40
2022-12-22T05:15:09.511Z,0.65
2022-12-22T05:16:15.006Z,0.50
2022-12-22T05:17:16.944Z,0.40
2022-12-22T05:18:21.300Z,0.50
2022-12-22T05:19:27.467Z,0.60
2022-12-22T05:20:33.876Z,1.40
2022-12-22T05:21:35.871Z,0.57
2022-12-22T05:22:38.872Z,0.90
2022-12-22T05:23:42.316Z,0.65
2022-12-22T05:24:45.412Z,0.40
2022-12-22T05:25:47.329Z,0.52
2022-12-22T05:26:50.383Z,0.60
2022-12-22T05:27:52.419Z,0.60
2022-12-22T05:28:55.461Z,0.70
2022-12-22T05:29:57.399Z,0.60
2022-12-22T05:31:05.591Z,0.60
2022-12-22T05:32:07.657Z,0.90
2022-12-22T05:33:10.601Z,0.60
2022-12-22T05:34:13.951Z,0.70
2022-12-22T05:35:17.501Z,0.60
2022-12-22T05:36:19.879Z,0.50
2022-12-22T05:37:22.810Z,1.02
2022-12-22T05:38:25.804Z,0.90
2022-12-22T05:39:27.736Z,0.55
2022-12-22T05:40:30.695Z,0.70
2022-12-22T05:41:32.635Z,0.57
2022-12-22T05:42:38.129Z,0.55
2022-12-22T05:43:40.240Z,0.60
2022-12-22T05:44:43.141Z,0.68
2022-12-22T05:45:45.718Z,0.77
2022-12-22T05:46:51.242Z,0.73
2022-12-22T05:47:53.319Z,0.90
2022-12-22T05:48:56.243Z,0.38
2022-12-22T05:49:59.495Z,0.50
2022-12-22T05:51:02.622Z,0.70
2022-12-22T05:52:05.073Z,0.60
2022-12-22T05:53:08.911Z,0.50
2022-12-22T05:54:11.080Z,0.40
2022-12-22T05:55:14.976Z,0.60
2022-12-22T05:56:16.928Z,0.50
2022-12-22T05:57:19.868Z,0.60
2022-12-22T05:58:22.850Z,0.68
2022-12-22T05:59:24.806Z,0.60
2022-12-22T06:00:27.755Z,0.55
2022-12-22T06:01:29.807Z,0.68
2022-12-22T06:02:33.283Z,0.50
2022-12-22T06:03:35.530Z,0.50
2022-12-22T06:04:38.534Z,0.50
2022-12-22T06:05:41.986Z,0.40
2022-12-22T06:06:44.971Z,0.40
2022-12-22T06:07:47.031Z,0.50
2022-12-22T06:08:50.042Z,0.63
2022-12-22T06:09:52.105Z,0.40
2022-12-22T06:10:55.765Z,0.40
2022-12-22T06:11:57.820Z,0.50
2022-12-22T06:13:00.851Z,0.50
2022-12-22T06:14:02.839Z,0.50
2022-12-22T06:15:06.910Z,0.70
2022-12-22T06:16:08.941Z,0.75
2022-12-22T06:17:11.872Z,0.63
2022-12-22T06:18:13.884Z,0.50
2022-12-22T06:19:16.960Z,0.70
2022-12-22T06:20:19.054Z,0.90
2022-12-22T06:21:23.475Z,0.40
2022-12-22T06:22:25.421Z,0.45
2022-12-22T06:23:28.423Z,0.70
2022-12-22T06:24:30.455Z,0.70
2022-12-22T06:25:33.433Z,0.80
2022-12-22T06:26:35.319Z,0.60
2022-12-22T06:27:38.361Z,0.50
2022-12-22T06:28:40.265Z,0.50
2022-12-22T06:29:43.190Z,0.52
2022-12-22T06:30:45.229Z,0.65
2022-12-22T06:31:48.421Z,0.60
2022-12-22T06:32:50.473Z,0.60
2022-12-22T06:33:53.483Z,0.52
2022-12-22T06:34:55.445Z,0.40
2022-12-22T06:35:59.536Z,0.43
2022-12-22T06:37:03.089Z,0.60
2022-12-22T06:38:06.035Z,0.40
2022-12-22T06:39:08.124Z,0.85
2022-12-22T06:40:11.912Z,0.73
2022-12-22T06:41:13.920Z,0.60
2022-12-22T06:42:48.996Z,0.70
2022-12-22T06:43:51.883Z,0.70
2022-12-22T06:44:55.038Z,0.65
2022-12-22T06:45:58.203Z,0.50
2022-12-22T06:47:00.360Z,0.70
2022-12-22T06:48:03.476Z,0.60
2022-12-22T06:49:05.556Z,0.45
2022-12-22T06:50:09.954Z,0.85
2022-12-22T06:51:11.944Z,0.52
2022-12-22T06:52:16.296Z,0.88
2022-12-22T06:53:18.227Z,0.60
2022-12-22T06:54:26.169Z,0.68
2022-12-22T06:55:28.787Z,0.55
2022-12-22T06:56:31.772Z,0.60
2022-12-22T06:57:33.706Z,0.63
2022-12-22T06:58:36.670Z,0.85
2022-12-22T06:59:38.662Z,0.57
2022-12-22T07:00:41.544Z,0.60
2022-12-22T07:01:43.521Z,0.70
2022-12-22T07:02:46.710Z,0.60
2022-12-22T07:03:49.105Z,0.77
2022-12-22T07:04:52.169Z,0.90
2022-12-22T07:05:54.029Z,0.57
2022-12-22T07:06:56.918Z,0.52
2022-12-22T07:08:07.652Z,0.52
2022-12-22T07:09:11.349Z,0.50
2022-12-22T07:10:13.547Z,0.70
2022-12-22T07:11:17.294Z,0.77
2022-12-22T07:12:19.197Z,0.90
2022-12-22T07:13:23.989Z,0.60
2022-12-22T07:14:27.905Z,0.60
2022-12-22T07:15:29.859Z,0.55
2022-12-22T07:16:32.943Z,0.50
2022-12-22T07:17:34.962Z,0.75
2022-12-22T07:18:39.971Z,1.10
2022-12-22T07:19:42.920Z,0.60
2022-12-22T07:20:44.953Z,0.40
2022-12-22T07:21:48.957Z,0.73
2022-12-22T07:22:51.078Z,0.60
2022-12-22T07:23:55.421Z,0.85
2022-12-22T07:24:57.381Z,0.45
2022-12-22T07:26:00.659Z,0.80
2022-12-22T07:27:02.624Z,1.15
2022-12-22T07:28:07.764Z,0.70
2022-12-22T07:29:09.749Z,1.00
2022-12-22T07:30:13.895Z,0.60
2022-12-22T07:31:18.347Z,0.70
2022-12-22T07:32:21.295Z,0.70
2022-12-22T07:33:23.367Z,0.73
2022-12-22T07:34:26.329Z,0.55
2022-12-22T07:35:28.369Z,0.60
2022-12-22T07:36:31.305Z,0.60
2022-12-22T07:37:33.248Z,0.80
2022-12-22T07:38:38.532Z,0.70
2022-12-22T07:39:43.018Z,0.70
2022-12-22T07:40:49.352Z,0.77
2022-12-22T07:42:18.062Z,0.63
2022-12-22T07:43:21.004Z,0.55
2022-12-22T07:44:24.054Z,2.65
2022-12-22T07:45:28.129Z,0.75
2022-12-22T07:46:34.773Z,1.05
2022-12-22T07:47:36.818Z,0.85
2022-12-22T07:48:58.269Z,0.98
2022-12-22T07:50:18.616Z,0.98
2022-12-22T07:51:21.607Z,0.77
2022-12-22T07:52:23.537Z,0.52
2022-12-22T07:53:26.501Z,1.02
2022-12-22T07:54:29.776Z,0.63
2022-12-22T07:55:36.470Z,0.85
2022-12-22T07:56:39.538Z,0.75
2022-12-22T07:57:42.505Z,0.52
2022-12-22T07:58:44.437Z,0.90
2022-12-22T07:59:47.368Z,0.88
2022-12-22T08:00:49.331Z,0.70
2022-12-22T08:01:52.429Z,0.47
2022-12-22T08:02:57.485Z,0.60
2022-12-22T08:03:59.557Z,0.80
2022-12-22T08:05:02.556Z,0.70
2022-12-22T08:06:05.225Z,1.00
2022-12-22T08:07:08.198Z,0.70
2022-12-22T08:08:11.112Z,0.60
2022-12-22T08:09:16.856Z,0.98
2022-12-22T08:10:20.074Z,0.68
2022-12-22T08:11:24.421Z,0.80
2022-12-22T08:12:27.100Z,0.80
2022-12-22T08:13:30.037Z,0.95
2022-12-22T08:14:33.077Z,0.80
2022-12-22T08:15:35.456Z,0.85
2022-12-22T08:16:38.445Z,0.80
2022-12-22T08:17:41.520Z,0.60
2022-12-22T08:18:44.428Z,0.65
2022-12-22T08:19:48.660Z,0.80
2022-12-22T08:20:51.963Z,0.90
2022-12-22T08:21:54.893Z,0.80
2022-12-22T08:22:58.029Z,0.35
2022-12-22T08:24:00.941Z,0.60
2022-12-22T08:25:03.079Z,0.70
2022-12-22T08:26:10.632Z,0.98
2022-12-22T08:27:25.753Z,0.75
2022-12-22T08:28:28.938Z,0.80
2022-12-22T08:29:35.646Z,0.80
2022-12-22T08:30:39.648Z,0.55
2022-12-22T08:31:43.022Z,1.15
2022-12-22T08:32:48.575Z,1.10
2022-12-22T08:33:51.696Z,0.70
2022-12-22T08:34:55.343Z,0.88
2022-12-22T08:36:02.673Z,0.57
2022-12-22T08:37:14.497Z,0.73
2022-12-22T08:38:16.600Z,1.00
2022-12-22T08:39:22.420Z,0.60
2022-12-22T08:40:31.704Z,0.80
2022-12-22T08:41:53.808Z,0.60
2022-12-22T08:43:00.355Z,0.50
2022-12-22T08:44:02.313Z,0.82
2022-12-22T08:45:06.014Z,1.02
2022-12-22T08:46:08.062Z,0.80
2022-12-22T08:47:16.648Z,0.68
2022-12-22T08:48:20.230Z,0.85
2022-12-22T08:49:22.768Z,0.93
2022-12-22T08:50:25.788Z,1.20
2022-12-22T08:51:27.688Z,0.60
2022-12-22T08:52:31.727Z,0.70
2022-12-22T08:54:06.677Z,1.42
2022-12-22T08:54:59.180Z,0.88
2022-12-22T08:56:02.210Z,0.80
2022-12-22T08:57:05.209Z,0.95
2022-12-22T08:58:09.522Z,0.70
2022-12-22T08:59:12.316Z,0.77
2022-12-22T09:00:16.434Z,1.50
2022-12-22T09:01:19.665Z,0.80
2022-12-22T09:02:22.871Z,0.88
2022-12-22T09:03:24.977Z,0.95
2022-12-22T09:04:27.903Z,1.15
2022-12-22T09:05:29.859Z,0.65
2022-12-22T09:06:38.578Z,0.70
2022-12-22T09:07:43.769Z,0.75
2022-12-22T09:08:45.765Z,1.00
2022-12-22T09:09:48.788Z,0.60
2022-12-22T09:10:50.763Z,0.60
2022-12-22T09:11:53.746Z,1.40
2022-12-22T09:12:56.765Z,0.77
2022-12-22T09:14:01.302Z,0.82
2022-12-22T09:15:04.457Z,1.02
2022-12-22T09:16:07.026Z,0.75
2022-12-22T09:17:10.144Z,0.90
2022-12-22T09:18:12.095Z,0.68
2022-12-22T09:19:15.069Z,0.90
2022-12-22T09:20:17.982Z,0.57
2022-12-22T09:21:20.315Z,0.95
2022-12-22T09:22:28.481Z,0.60
2022-12-22T09:23:31.656Z,1.40
2022-12-22T09:24:34.668Z,1.15
2022-12-22T09:25:36.627Z,0.90
2022-12-22T09:26:39.611Z,0.70
2022-12-22T09:27:42.955Z,0.80
2022-12-22T09:28:50.151Z,0.80
2022-12-22T09:29:55.106Z,1.02
2022-12-22T09:30:57.055Z,0.60
2022-12-22T09:32:00.286Z,0.80
2022-12-22T09:33:03.260Z,0.95
2022-12-22T09:34:05.218Z,0.70
2022-12-22T09:35:08.720Z,0.90
2022-12-22T09:36:13.210Z,0.73
2022-12-22T09:37:16.619Z,0.95
2022-12-22T09:38:18.639Z,0.80
2022-12-22T09:39:28.348Z,0.70
2022-12-22T09:40:32.193Z,0.63
2022-12-22T09:41:38.403Z,0.70
2022-12-22T09:42:40.443Z,0.85
2022-12-22T09:43:44.088Z,1.02
2022-12-22T09:44:51.035Z,0.73
2022-12-22T09:45:55.705Z,0.98
2022-12-22T09:47:00.643Z,1.13
2022-12-22T09:48:03.558Z,0.95
2022-12-22T09:49:06.641Z,0.90
2022-12-22T09:50:17.158Z,0.95
2022-12-22T09:51:26.401Z,0.80
2022-12-22T09:52:43.642Z,0.95
2022-12-22T09:53:49.378Z,0.70
2022-12-22T09:54:51.499Z,0.80
2022-12-22T09:55:54.598Z,1.85
2022-12-22T09:56:57.882Z,0.60
2022-12-22T09:57:59.952Z,0.77
2022-12-22T09:59:03.113Z,0.77
2022-12-22T10:00:14.588Z,0.93
2022-12-22T10:01:36.367Z,0.70
2022-12-22T10:02:48.481Z,1.10
2022-12-22T10:04:00.449Z,0.68
2022-12-22T10:05:28.319Z,0.60
2022-12-22T10:06:40.438Z,0.70
2022-12-22T10:07:43.860Z,0.93
2022-12-22T10:08:47.221Z,1.20
2022-12-22T10:09:51.282Z,1.00
2022-12-22T10:10:55.193Z,1.10
2022-12-22T10:11:59.405Z,1.02
2022-12-22T10:13:04.573Z,0.70
2022-12-22T10:14:06.669Z,1.10
2022-12-22T10:15:18.397Z,0.75
2022-12-22T10:16:27.799Z,0.60
2022-12-22T10:17:33.450Z,0.65
2022-12-22T10:18:35.584Z,1.00
2022-12-22T10:19:38.635Z,0.77
2022-12-22T10:20:42.618Z,0.80
2022-12-22T10:21:49.632Z,0.60
2022-12-22T10:22:54.166Z,0.80
2022-12-22T10:23:57.123Z,0.88
2022-12-22T10:25:01.641Z,0.60
2022-12-22T10:27:41.950Z,1.00
2022-12-22T10:28:49.501Z,0.60
2022-12-22T10:29:52.687Z,0.80
2022-12-22T10:31:12.444Z,0.90
2022-12-22T10:32:19.183Z,0.93
2022-12-22T10:33:21.325Z,0.75
2022-12-22T10:34:24.454Z,0.85
2022-12-22T10:35:26.501Z,0.50
2022-12-22T10:36:33.343Z,1.30
2022-12-22T10:37:37.397Z,1.00
2022-12-22T10:38:53.573Z,0.75
2022-12-22T10:39:56.745Z,0.88
2022-12-22T10:41:03.374Z,0.98
2022-12-22T10:42:11.287Z,1.45
2022-12-22T10:43:20.817Z,0.77
2022-12-22T10:44:27.205Z,0.70
2022-12-22T10:45:29.191Z,0.50
2022-12-22T10:46:38.900Z,1.02
2022-12-22T10:47:49.202Z,0.60
2022-12-22T10:48:51.336Z,1.13
2022-12-22T10:51:02.695Z,0.90
2022-12-22T10:52:14.692Z,0.80
2022-12-22T10:53:17.048Z,1.08
2022-12-22T10:54:31.832Z,0.70
2022-12-22T10:55:35.958Z,0.70
2022-12-22T10:56:38.931Z,0.80
2022-12-22T10:57:40.885Z,1.35
2022-12-22T10:58:52.734Z,1.02
2022-12-22T10:59:57.996Z,1.45
2022-12-22T11:01:04.660Z,0.77
2022-12-22T11:02:40.804Z,1.42
2022-12-22T11:03:45.254Z,0.85
2022-12-22T11:04:49.018Z,0.85
2022-12-22T11:05:51.699Z,0.90
2022-12-22T11:06:56.261Z,0.50
2022-12-22T11:08:03.361Z,1.10
2022-12-22T11:09:31.826Z,1.13
2022-12-22T11:10:34.754Z,0.73
2022-12-22T11:11:43.384Z,1.23
2022-12-22T11:13:00.347Z,1.15
2022-12-22T11:14:12.359Z,0.90
2022-12-22T11:15:28.044Z,0.65
2022-12-22T11:16:36.358Z,0.85
2022-12-22T11:17:47.402Z,1.15
2022-12-22T11:19:08.489Z,1.00
2022-12-22T11:20:31.543Z,1.25
2022-12-22T11:21:42.773Z,1.10
2022-12-22T11:22:53.978Z,1.00
2022-12-22T11:24:06.038Z,1.00
2022-12-22T11:25:23.748Z,0.95
2022-12-22T11:26:37.911Z,0.70
2022-12-22T11:27:48.721Z,1.38
2022-12-22T11:29:06.901Z,1.42
2022-12-22T11:30:12.997Z,0.70
2022-12-22T11:31:28.462Z,2.33
2022-12-22T11:32:47.551Z,0.90
2022-12-22T11:34:12.360Z,1.77
2022-12-22T11:35:27.641Z,0.70
2022-12-22T11:36:44.157Z,1.02
2022-12-22T11:37:52.636Z,1.00
2022-12-22T11:38:59.789Z,1.08
2022-12-22T11:40:12.019Z,0.70
2022-12-22T11:41:27.891Z,1.63
2022-12-22T11:42:50.274Z,0.70
2022-12-22T11:44:12.944Z,0.90
2022-12-22T11:45:35.248Z,1.00
2022-12-22T11:46:46.509Z,0.80
2022-12-22T11:48:03.443Z,0.90
2022-12-22T11:49:38.312Z,0.95
2022-12-22T11:51:00.261Z,1.10
2022-12-22T11:52:16.997Z,1.40
2022-12-22T11:53:34.333Z,1.23
2022-12-22T11:55:19.987Z,1.38
2022-12-22T11:56:25.402Z,0.90
2022-12-22T11:57:35.237Z,0.90
2022-12-22T11:58:51.067Z,1.30
2022-12-22T12:00:04.340Z,1.20
2022-12-22T12:01:29.272Z,0.93
2022-12-22T12:02:52.495Z,0.77
2022-12-22T12:04:18.277Z,0.70
2022-12-22T12:05:44.631Z,1.45
2022-12-22T12:07:04.961Z,1.00
2022-12-22T12:08:20.289Z,1.05
2022-12-22T12:09:36.530Z,1.60
2022-12-22T12:10:45.945Z,0.70
2022-12-22T12:11:57.476Z,1.30
2022-12-22T12:13:08.909Z,1.40
2022-12-22T12:14:20.944Z,1.40
2022-12-22T12:15:32.146Z,1.70
2022-12-22T12:16:41.386Z,0.98
2022-12-22T12:17:59.955Z,1.00
2022-12-22T12:19:47.093Z,0.82
2022-12-22T12:21:02.607Z,0.80
2022-12-22T12:22:09.985Z,1.35
2022-12-22T12:23:36.132Z,1.30
2022-12-22T12:24:48.900Z,1.00
2022-12-22T12:26:03.039Z,1.80
2022-12-22T12:27:12.994Z,1.27
2022-12-22T12:28:25.058Z,0.95
2022-12-22T12:29:29.180Z,1.60
2022-12-22T12:30:41.148Z,2.10
2022-12-22T12:31:49.244Z,1.30
2022-12-22T12:32:59.195Z,1.35
2022-12-22T12:34:04.616Z,1.23
2022-12-22T12:35:22.625Z,1.38
2022-12-22T12:36:32.832Z,1.40
2022-12-22T12:37:38.950Z,1.33
2022-12-22T12:39:09.462Z,0.90
2022-12-22T12:40:32.902Z,2.25
2022-12-22T12:41:45.982Z,1.38
2022-12-22T12:42:50.102Z,1.13
2022-12-22T12:43:54.529Z,1.00
2022-12-22T12:44:57.529Z,0.98
2022-12-22T12:45:59.411Z,1.70
2022-12-22T12:47:24.890Z,1.17
2022-12-22T12:48:40.571Z,2.25
2022-12-22T12:50:04.377Z,2.17
2022-12-22T12:51:39.531Z,0.80
2022-12-22T12:53:17.221Z,1.77
2022-12-22T12:54:34.300Z,1.10
2022-12-22T12:55:54.363Z,1.20
2022-12-22T12:56:59.783Z,0.98
2022-12-22T12:58:04.711Z,1.10
2022-12-22T12:59:08.376Z,1.15
2022-12-22T13:00:48.720Z,1.35
2022-12-22T13:01:58.993Z,1.20
2022-12-22T13:03:03.582Z,1.33
2022-12-22T13:04:09.181Z,1.65
2022-12-22T13:05:36.655Z,1.73
2022-12-22T13:06:51.477Z,0.95
2022-12-22T13:08:17.340Z,1.30
2022-12-22T13:12:10.007Z,1.60
2022-12-22T13:12:53.509Z,1.10
2022-12-22T13:13:57.796Z,1.10
2022-12-22T13:15:01.901Z,0.85
2022-12-22T13:16:35.028Z,1.50
2022-12-22T13:17:47.994Z,1.42
2022-12-22T13:18:52.144Z,1.42
2022-12-22T13:19:55.282Z,1.00
2022-12-22T13:21:26.081Z,1.70
2022-12-22T13:22:23.548Z,1.10
2022-12-22T13:23:29.553Z,1.30
2022-12-22T13:24:48.901Z,1.10
2022-12-22T13:25:58.770Z,1.13
2022-12-22T13:27:08.614Z,1.02
2022-12-22T13:28:16.170Z,1.10
2022-12-22T13:29:27.214Z,1.70
2022-12-22T13:30:31.588Z,1.30
2022-12-22T13:31:38.359Z,1.58
2022-12-22T13:32:42.556Z,1.30
2022-12-22T13:33:45.724Z,1.65
2022-12-22T13:35:29.832Z,1.05
2022-12-22T13:36:21.320Z,0.90
2022-12-22T13:37:25.437Z,1.55
2022-12-22T13:38:30.682Z,1.23
2022-12-22T13:39:32.639Z,1.17
2022-12-22T13:40:43.269Z,1.02
2022-12-22T13:41:48.427Z,1.23
2022-12-22T13:42:54.217Z,1.60
2022-12-22T13:44:04.463Z,1.27
2022-12-22T13:45:15.720Z,1.38
2022-12-22T13:46:18.762Z,1.15
2022-12-22T13:47:20.890Z,1.50
2022-12-22T13:48:29.071Z,1.73
2022-12-22T13:49:59.248Z,1.30
2022-12-22T13:50:58.773Z,1.02
2022-12-22T13:52:05.396Z,1.30
2022-12-22T13:53:22.901Z,1.10
2022-12-22T13:54:39.356Z,1.50
2022-12-22T13:55:46.690Z,1.33
2022-12-22T13:56:52.239Z,1.65
2022-12-22T13:57:58.800Z,1.25
2022-12-22T13:59:03.500Z,1.50
2022-12-22T14:00:07.777Z,1.20
2022-12-22T14:01:18.420Z,3.10
2022-12-22T14:02:23.202Z,1.52
2022-12-22T14:03:58.363Z,1.65
2022-12-22T14:05:07.103Z,0.90
2022-12-22T14:06:27.407Z,1.05
2022-12-22T14:07:30.445Z,1.05
2022-12-22T14:08:33.415Z,1.52
2022-12-22T14:09:36.314Z,2.15
2022-12-22T14:10:43.210Z,1.60
2022-12-22T14:11:51.945Z,1.33
2022-12-22T14:12:54.321Z,1.58
2022-12-22T14:13:57.261Z,1.40
2022-12-22T14:15:03.203Z,2.40
2022-12-22T14:16:07.852Z,2.10
2022-12-22T14:17:24.043Z,1.38
2022-12-22T14:18:27.178Z,1.55
2022-12-22T14:19:34.135Z,1.25
2022-12-22T14:20:40.211Z,1.35
2022-12-22T14:21:43.773Z,1.70
2022-12-22T14:22:51.244Z,1.20
2022-12-22T14:23:54.439Z,2.15
2022-12-22T14:24:59.080Z,1.50
2022-12-22T14:26:06.155Z,1.63
2022-12-22T14:27:19.636Z,1.35
2022-12-22T14:28:27.836Z,2.33
2022-12-22T14:29:31.099Z,1.25
2022-12-22T14:30:39.287Z,1.67
2022-12-22T14:31:59.275Z,1.40
2022-12-22T14:33:17.905Z,1.20
2022-12-22T14:34:26.512Z,1.63
2022-12-22T14:35:31.170Z,2.38
2022-12-22T14:36:41.303Z,1.80
2022-12-22T14:37:43.480Z,2.03
2022-12-22T14:38:48.708Z,1.88
2022-12-22T14:39:55.229Z,1.60
2022-12-22T14:40:58.215Z,2.30
2022-12-22T14:42:02.858Z,1.90
2022-12-22T14:43:08.212Z,2.05
2022-12-22T14:44:16.373Z,1.95
2022-12-22T14:45:19.345Z,2.10
2022-12-22T14:46:22.996Z,1.88
2022-12-22T14:47:27.137Z,2.08
2022-12-22T14:48:32.803Z,1.30
2022-12-22T14:49:36.757Z,1.55
2022-12-22T14:50:49.344Z,1.80
2022-12-22T14:52:01.059Z,1.15
2022-12-22T14:53:06.706Z,2.17
2022-12-22T14:54:20.267Z,2.00
2022-12-22T14:55:27.973Z,3.60
2022-12-22T14:56:31.101Z,2.00
2022-12-22T14:57:42.282Z,2.80
2022-12-22T14:58:46.162Z,2.33
2022-12-22T15:00:00.548Z,1.70
2022-12-22T15:01:18.670Z,2.08
2022-12-22T15:02:33.511Z,1.67
2022-12-22T15:03:40.833Z,1.60
2022-12-22T15:04:43.834Z,2.22
2022-12-22T15:05:45.828Z,1.63
2022-12-22T15:06:50.369Z,1.90
2022-12-22T15:08:05.426Z,1.77
2022-12-22T15:10:04.124Z,1.63
2022-12-22T15:10:50.681Z,1.85
2022-12-22T15:11:55.723Z,2.20
2022-12-22T15:13:00.494Z,1.33
2022-12-22T15:14:04.281Z,1.48
2022-12-22T15:15:15.184Z,1.58
2022-12-22T15:16:20.504Z,1.50
2022-12-22T15:17:26.590Z,2.08
2022-12-22T15:18:30.081Z,1.33
2022-12-22T15:19:34.479Z,1.40
2022-12-22T15:20:39.615Z,1.55
2022-12-22T15:21:42.081Z,2.20
2022-12-22T15:22:45.050Z,1.50
2022-12-22T15:23:47.344Z,1.70
2022-12-22T15:24:50.391Z,1.58
2022-12-22T15:25:53.356Z,1.85
2022-12-22T15:26:55.528Z,2.13
2022-12-22T15:27:58.466Z,1.50
2022-12-22T15:29:00.372Z,1.25
2022-12-22T15:30:03.501Z,2.00
2022-12-22T15:31:14.051Z,1.63
2022-12-22T15:32:16.200Z,2.03
2022-12-22T15:33:20.953Z,1.40
2022-12-22T15:34:25.813Z,1.75
2022-12-22T15:35:30.956Z,1.45